| time (UTC) | temp F | wind direction | speed MPH | gust MPH | rain 1hr in | rain 24hr in | rain mn in | humidity % | barometer mb |
| 20260831025306 | 66 | 62 | 6.0 | 10.0 | 0.01 | 0.02 | 0.01 | 81 | 1023.5 |
| 20260831024804 | 66 | 88 | 9.0 | 16.0 | 0.01 | 0.02 | 0.01 | 81 | 1023.6 |
| 20260831024304 | 66 | 91 | 9.0 | 15.0 | 0.01 | 0.02 | 0.01 | 80 | 1023.7 |
| 20260831023805 | 68 | 83 | 8.0 | 16.0 | 0.01 | 0.02 | 0.01 | 79 | 1023.8 |
| 20260831023305 | 70 | 63 | 9.0 | 20.0 | 0.00 | 0.01 | 0.00 | 75 | 1023.7 |
| 20260831022804 | 71 | 81 | 9.0 | 17.0 | 0.00 | 0.01 | 0.00 | 70 | 1023.6 |
| 20260831021804 | 71 | 80 | 7.0 | 12.0 | 0.00 | 0.01 | 0.00 | 69 | 1023.5 |
| 20260831021305 | 71 | 84 | 5.0 | 13.0 | 0.00 | 0.01 | 0.00 | 71 | 1023.5 |
| 20260831020804 | 71 | 55 | 9.0 | 14.0 | 0.00 | 0.01 | 0.00 | 71 | 1023.5 |
| 20260831015805 | 72 | 95 | 10.0 | 17.0 | 0.00 | 0.01 | 0.00 | 69 | 1023.7 |
| 20260831015306 | 72 | 73 | 10.0 | 17.0 | 0.00 | 0.01 | 0.00 | 69 | 1023.8 |
| 20260831014805 | 71 | 67 | 7.0 | 14.0 | 0.00 | 0.01 | 0.00 | 70 | 1023.8 |
| 20260831014305 | 71 | 73 | 9.0 | 16.0 | 0.00 | 0.01 | 0.00 | 70 | 1023.9 |
| 20260831013804 | 70 | 80 | 8.0 | 20.0 | 0.00 | 0.01 | 0.00 | 71 | 1024.1 |
| 20260831013304 | 71 | 79 | 11.0 | 16.0 | 0.00 | 0.01 | 0.00 | 70 | 1024.2 |
| 20260831012804 | 71 | 56 | 11.0 | 20.0 | 0.00 | 0.01 | 0.00 | 70 | 1024.2 |
| 20260831012306 | 70 | 88 | 10.0 | 20.0 | 0.00 | 0.01 | 0.00 | 72 | 1024.3 |
| 20260831011304 | 69 | 86 | 10.0 | 15.0 | 0.00 | 0.01 | 0.00 | 73 | 1024.4 |
| 20260831010805 | 68 | 90 | 8.0 | 14.0 | 0.00 | 0.01 | 0.00 | 73 | 1024.5 |
| 20260831010305 | 68 | 81 | 9.0 | 13.0 | 0.00 | 0.01 | 0.00 | 73 | 1024.6 |
| 20260831005804 | 68 | 87 | 9.0 | 20.0 | 0.00 | 0.01 | 0.00 | 73 | 1024.7 |
| 20260831005306 | 68 | 86 | 10.0 | 17.0 | 0.00 | 0.01 | 0.00 | 72 | 1024.8 |
| 20260831004805 | 69 | 83 | 9.0 | 15.0 | 0.00 | 0.01 | 0.00 | 71 | 1024.8 |
| 20260831003804 | 68 | 93 | 9.0 | 13.0 | 0.00 | 0.01 | 0.00 | 72 | 1024.8 |
| 20260831003305 | 68 | 100 | 9.0 | 12.0 | 0.00 | 0.01 | 0.00 | 72 | 1024.8 |
| 20260831002804 | 68 | 96 | 10.0 | 16.0 | 0.00 | 0.01 | 0.00 | 71 | 1024.9 |
| 20260831002306 | 69 | 91 | 10.0 | 16.0 | 0.00 | 0.01 | 0.00 | 72 | 1024.9 |
| 20260831001805 | 69 | 70 | 11.0 | 20.0 | 0.00 | 0.01 | 0.00 | 74 | 1024.9 |
| 20260831001304 | 68 | 86 | 9.0 | 13.0 | 0.00 | 0.01 | 0.00 | 76 | 1025.0 |
| 20260831000804 | 66 | 64 | 7.0 | 14.0 | 0.00 | 0.01 | 0.00 | 79 | 1024.9 |
| 20260831000304 | 65 | 83 | 5.0 | 12.0 | 0.00 | 0.01 | 0.00 | 80 | 1024.9 |
| 20260830235804 | 64 | 72 | 7.0 | 14.0 | 0.00 | 0.01 | 0.00 | 81 | 1025.0 |
| 20260830234304 | 66 | 99 | 11.0 | 15.0 | 0.00 | 0.01 | 0.00 | 77 | 1025.0 |
| 20260830233804 | 67 | 92 | 10.0 | 15.0 | 0.00 | 0.01 | 0.00 | 75 | 1024.8 |
| 20260830233304 | 67 | 65 | 9.0 | 15.0 | 0.00 | 0.01 | 0.00 | 74 | 1024.6 |
| 20260830232804 | 67 | 73 | 9.0 | 15.0 | 0.00 | 0.01 | 0.00 | 74 | 1024.5 |
| 20260830232306 | 67 | 83 | 10.0 | 15.0 | 0.00 | 0.01 | 0.00 | 73 | 1024.5 |
| 20260830231805 | 67 | 90 | 11.0 | 15.0 | 0.00 | 0.01 | 0.00 | 73 | 1024.4 |
| 20260830231304 | 67 | 79 | 10.0 | 14.0 | 0.00 | 0.01 | 0.00 | 73 | 1024.3 |
| 20260830230820 | 67 | 95 | 6.0 | 13.0 | 0.00 | 0.01 | 0.00 | 73 | 1024.1 |
| 20260830225805 | 67 | 93 | 10.0 | 17.0 | 0.00 | 0.01 | 0.01 | 73 | 1024.1 |
| 20260830225306 | 67 | 105 | 9.0 | 13.0 | 0.00 | 0.01 | 0.01 | 75 | 1024.1 |
| 20260830224305 | 67 | 117 | 6.0 | 10.0 | 0.00 | 0.01 | 0.01 | 76 | 1024.1 |
| 20260830223804 | 66 | 111 | 8.0 | 12.0 | 0.00 | 0.01 | 0.01 | 76 | 1024.0 |
| 20260830222804 | 57 | 3 | 0.0 | 0.0 | 0.00 | 0.01 | 0.01 | 83 | 1023.8 |
| 20260830222306 | 57 | 3 | 0.0 | 0.0 | 0.00 | 0.01 | 0.01 | 83 | 1023.9 |
| 20260830221304 | 57 | 3 | 0.0 | 0.0 | 0.00 | 0.01 | 0.01 | 83 | 1023.9 |
| 20260830220804 | 57 | 3 | 0.0 | 0.0 | 0.00 | 0.01 | 0.01 | 83 | 1023.7 |
| 20260830220305 | 57 | 3 | 0.0 | 0.0 | 0.00 | 0.01 | 0.01 | 83 | 1023.8 |
| 20260830215805 | 57 | 2 | 0.0 | 0.0 | 0.00 | 0.01 | 0.01 | 83 | 1023.7 |
| 20260830215305 | 57 | 3 | 0.0 | 0.0 | 0.00 | 0.01 | 0.01 | 83 | 1023.7 |
| 20260830214804 | 57 | 3 | 0.0 | 0.0 | 0.00 | 0.01 | 0.01 | 83 | 1023.7 |
| 20260830214305 | 57 | 3 | 0.0 | 0.0 | 0.00 | 0.01 | 0.01 | 83 | 1023.6 |
| 20260830213804 | 57 | 3 | 0.0 | 0.0 | 0.00 | 0.01 | 0.01 | 83 | 1023.5 |
| 20260830213304 | 57 | 3 | 0.0 | 0.0 | 0.00 | 0.01 | 0.01 | 83 | 1023.4 |
| 20260830212805 | 57 | 3 | 0.0 | 0.0 | 0.00 | 0.01 | 0.01 | 83 | 1023.4 |
| 20260830212306 | 57 | 3 | 0.0 | 0.0 | 0.00 | 0.01 | 0.01 | 83 | 1023.6 |
| 20260830211805 | 57 | 3 | 0.0 | 0.0 | 0.00 | 0.01 | 0.01 | 83 | 1023.4 |
| 20260830211304 | 57 | 3 | 0.0 | 0.0 | 0.00 | 0.01 | 0.01 | 83 | 1023.3 |
| 20260830210805 | 57 | 2 | 0.0 | 0.0 | 0.00 | 0.01 | 0.01 | 83 | 1023.3 |
| 20260830210304 | 57 | 2 | 0.0 | 0.0 | 0.00 | 0.01 | 0.01 | 83 | 1023.3 |
| 20260830205805 | 57 | 2 | 0.0 | 0.0 | 0.00 | 0.01 | 0.01 | 83 | 1023.1 |
| 20260830205306 | 57 | 3 | 0.0 | 0.0 | 0.00 | 0.01 | 0.01 | 83 | 1023.0 |
| 20260830204804 | 57 | 3 | 0.0 | 0.0 | 0.00 | 0.01 | 0.01 | 83 | 1023.0 |
| 20260830204305 | 57 | 3 | 0.0 | 0.0 | 0.00 | 0.01 | 0.01 | 83 | 1023.0 |
| 20260830203805 | 57 | 3 | 0.0 | 0.0 | 0.00 | 0.01 | 0.01 | 83 | 1022.9 |
| 20260830203305 | 57 | 2 | 0.0 | 0.0 | 0.00 | 0.01 | 0.01 | 83 | 1022.9 |
| 20260830202804 | 57 | 3 | 0.0 | 0.0 | 0.00 | 0.01 | 0.01 | 83 | 1022.8 |
| 20260830202305 | 57 | 3 | 0.0 | 0.0 | 0.00 | 0.01 | 0.01 | 83 | 1022.9 |
| 20260830201804 | 57 | 3 | 0.0 | 0.0 | 0.00 | 0.01 | 0.01 | 83 | 1022.8 |
| 20260830201306 | 57 | 3 | 0.0 | 0.0 | 0.00 | 0.01 | 0.01 | 83 | 1022.8 |
| 20260830200805 | 57 | 3 | 0.0 | 0.0 | 0.00 | 0.01 | 0.01 | 83 | 1022.7 |
| 20260830200305 | 57 | 3 | 0.0 | 0.0 | 0.00 | 0.01 | 0.01 | 83 | 1022.7 |
| 20260830195305 | 57 | 3 | 0.0 | 0.0 | 0.00 | 0.01 | 0.01 | 83 | 1022.6 |
| 20260830194804 | 57 | 3 | 0.0 | 0.0 | 0.00 | 0.01 | 0.01 | 83 | 1022.6 |
| 20260830193804 | 57 | 3 | 0.0 | 0.0 | 0.00 | 0.01 | 0.01 | 83 | 1022.5 |
| 20260830193304 | 57 | 3 | 0.0 | 0.0 | 0.00 | 0.01 | 0.01 | 83 | 1022.5 |
| 20260830192804 | 57 | 3 | 0.0 | 0.0 | 0.00 | 0.01 | 0.01 | 83 | 1022.5 |
| 20260830192305 | 57 | 3 | 0.0 | 0.0 | 0.00 | 0.01 | 0.01 | 83 | 1022.5 |
| 20260830191804 | 57 | 3 | 0.0 | 0.0 | 0.00 | 0.01 | 0.01 | 83 | 1022.4 |
| 20260830191306 | 57 | 3 | 0.0 | 0.0 | 0.00 | 0.01 | 0.01 | 83 | 1022.3 |
| 20260830190804 | 57 | 3 | 0.0 | 0.0 | 0.00 | 0.01 | 0.01 | 83 | 1022.3 |
| 20260830190304 | 57 | 3 | 0.0 | 0.0 | 0.00 | 0.01 | 0.01 | 83 | 1022.2 |
| 20260830185804 | 57 | 3 | 0.0 | 0.0 | 0.00 | 0.01 | 0.01 | 83 | 1022.3 |
| 20260830185306 | 57 | 3 | 0.0 | 0.0 | 0.00 | 0.01 | 0.01 | 83 | 1022.2 |
| 20260830184805 | 57 | 3 | 0.0 | 0.0 | 0.00 | 0.01 | 0.01 | 83 | 1022.2 |
| 20260830184305 | 57 | 3 | 0.0 | 0.0 | 0.00 | 0.01 | 0.01 | 83 | 1022.2 |
| 20260830183806 | 57 | 3 | 0.0 | 0.0 | 0.00 | 0.01 | 0.01 | 83 | 1022.3 |
| 20260830183304 | 57 | 3 | 0.0 | 0.0 | 0.00 | 0.01 | 0.01 | 83 | 1022.2 |
| 20260830182306 | 57 | 3 | 0.0 | 0.0 | 0.00 | 0.01 | 0.01 | 83 | 1022.2 |
| 20260830181805 | 57 | 3 | 0.0 | 0.0 | 0.00 | 0.01 | 0.01 | 83 | 1022.2 |
| 20260830181304 | 57 | 3 | 0.0 | 0.0 | 0.00 | 0.01 | 0.01 | 83 | 1022.3 |
| 20260830180305 | 57 | 3 | 0.0 | 0.0 | 0.00 | 0.01 | 0.01 | 83 | 1022.4 |
| 20260830175804 | 57 | 3 | 0.0 | 0.0 | 0.00 | 0.01 | 0.01 | 83 | 1022.5 |
| 20260830175306 | 57 | 3 | 0.0 | 0.0 | 0.00 | 0.01 | 0.01 | 83 | 1022.5 |
| 20260830174804 | 57 | 3 | 0.0 | 0.0 | 0.00 | 0.01 | 0.01 | 83 | 1022.4 |
| 20260830174304 | 57 | 3 | 0.0 | 0.0 | 0.00 | 0.01 | 0.01 | 83 | 1022.5 |
| 20260830173304 | 57 | 3 | 0.0 | 0.0 | 0.00 | 0.01 | 0.01 | 83 | 1022.5 |
| 20260830172806 | 57 | 3 | 0.0 | 0.0 | 0.00 | 0.01 | 0.01 | 83 | 1022.5 |
| 20260830172306 | 57 | 3 | 0.0 | 0.0 | 0.00 | 0.01 | 0.01 | 83 | 1022.5 |
| 20260830171805 | 57 | 3 | 0.0 | 0.0 | 0.00 | 0.01 | 0.01 | 83 | 1022.5 |
| 20260830171304 | 57 | 3 | 0.0 | 0.0 | 0.00 | 0.01 | 0.01 | 83 | 1022.5 |
| 20260830170805 | 57 | 3 | 0.0 | 0.0 | 0.00 | 0.01 | 0.01 | 83 | 1022.4 |
| 20260830170304 | 57 | 3 | 0.0 | 0.0 | 0.00 | 0.01 | 0.01 | 83 | 1022.5 |
| 20260830165804 | 57 | 3 | 0.0 | 0.0 | 0.00 | 0.01 | 0.01 | 83 | 1022.7 |
| 20260830164304 | 57 | 167 | 3.0 | 6.0 | 0.00 | 0.01 | 0.01 | 83 | 1022.7 |
| 20260830163805 | 57 | 167 | 4.0 | 8.0 | 0.00 | 0.01 | 0.01 | 83 | 1022.8 |
| 20260830163304 | 57 | 170 | 2.0 | 5.0 | 0.00 | 0.01 | 0.01 | 84 | 1022.8 |
| 20260830162306 | 57 | 171 | 3.0 | 6.0 | 0.00 | 0.01 | 0.01 | 84 | 1022.9 |
| 20260830161805 | 57 | 171 | 3.0 | 6.0 | 0.00 | 0.01 | 0.01 | 84 | 1022.9 |
| 20260830161305 | 57 | 173 | 3.0 | 7.0 | 0.00 | 0.01 | 0.01 | 84 | 1023.0 |
| 20260830160805 | 57 | 173 | 3.0 | 8.0 | 0.00 | 0.01 | 0.01 | 84 | 1023.0 |
| 20260830160304 | 57 | 160 | 3.0 | 6.0 | 0.00 | 0.01 | 0.01 | 84 | 1023.1 |
| 20260830155805 | 57 | 155 | 2.0 | 3.0 | 0.00 | 0.01 | 0.01 | 83 | 1023.0 |
| 20260830155306 | 57 | 154 | 3.0 | 5.0 | 0.00 | 0.01 | 0.01 | 83 | 1023.0 |
| 20260830154804 | 57 | 152 | 2.0 | 3.0 | 0.00 | 0.01 | 0.01 | 83 | 1023.0 |
| 20260830154304 | 57 | 152 | 2.0 | 3.0 | 0.00 | 0.01 | 0.01 | 83 | 1023.0 |
| 20260830153804 | 57 | 151 | 2.0 | 3.0 | 0.00 | 0.01 | 0.01 | 83 | 1023.1 |
| 20260830153305 | 57 | 151 | 2.0 | 3.0 | 0.00 | 0.01 | 0.01 | 83 | 1023.1 |
| 20260830152804 | 57 | 150 | 2.0 | 3.0 | 0.00 | 0.01 | 0.01 | 82 | 1023.2 |
| 20260830152306 | 58 | 150 | 0.0 | 0.0 | 0.00 | 0.01 | 0.01 | 82 | 1023.3 |
| 20260830151804 | 58 | 150 | 0.0 | 0.0 | 0.00 | 0.01 | 0.01 | 82 | 1023.5 |
| 20260830151304 | 58 | 150 | 0.0 | 0.0 | 0.00 | 0.01 | 0.01 | 82 | 1023.5 |
| 20260830150805 | 58 | 150 | 0.0 | 0.0 | 0.00 | 0.01 | 0.01 | 82 | 1023.6 |
| 20260830145306 | 59 | 150 | 0.0 | 0.0 | 0.00 | 0.01 | 0.01 | 81 | 1023.9 |
| 20260830144304 | 59 | 150 | 1.0 | 2.0 | 0.00 | 0.01 | 0.01 | 81 | 1024.1 |
| 20260830143805 | 60 | 150 | 1.0 | 2.0 | 0.00 | 0.01 | 0.01 | 81 | 1024.1 |
| 20260830143305 | 60 | 150 | 1.0 | 5.0 | 0.00 | 0.01 | 0.01 | 81 | 1024.2 |
| 20260830142804 | 60 | 151 | 1.0 | 2.0 | 0.00 | 0.01 | 0.01 | 81 | 1024.1 |
| 20260830142306 | 60 | 151 | 2.0 | 6.0 | 0.00 | 0.01 | 0.01 | 81 | 1024.2 |
| 20260830141804 | 60 | 138 | 3.0 | 3.0 | 0.00 | 0.01 | 0.01 | 81 | 1024.2 |
| 20260830141304 | 60 | 136 | 2.0 | 3.0 | 0.00 | 0.01 | 0.01 | 81 | 1024.2 |
| 20260830140304 | 60 | 131 | 2.0 | 7.0 | 0.00 | 0.01 | 0.01 | 81 | 1024.3 |
| 20260830135805 | 60 | 129 | 1.0 | 5.0 | 0.00 | 0.01 | 0.01 | 81 | 1024.2 |
| 20260830135306 | 60 | 125 | 2.0 | 6.0 | 0.00 | 0.01 | 0.01 | 81 | 1024.2 |
| 20260830134304 | 60 | 148 | 6.0 | 10.0 | 0.00 | 0.01 | 0.01 | 82 | 1024.3 |
| 20260830133804 | 60 | 144 | 4.0 | 9.0 | 0.00 | 0.01 | 0.01 | 82 | 1024.2 |
| 20260830133305 | 60 | 139 | 5.0 | 10.0 | 0.00 | 0.01 | 0.01 | 82 | 1024.3 |
| 20260830132804 | 60 | 133 | 3.0 | 12.0 | 0.00 | 0.01 | 0.01 | 82 | 1024.3 |
| 20260830132305 | 60 | 145 | 3.0 | 12.0 | 0.00 | 0.01 | 0.01 | 83 | 1024.3 |
| 20260830131805 | 60 | 134 | 5.0 | 10.0 | 0.00 | 0.01 | 0.01 | 83 | 1024.3 |
| 20260830131304 | 60 | 136 | 4.0 | 9.0 | 0.00 | 0.01 | 0.01 | 84 | 1024.4 |
| 20260830130805 | 60 | 129 | 2.0 | 8.0 | 0.00 | 0.01 | 0.01 | 84 | 1024.4 |
| 20260830125306 | 60 | 146 | 3.0 | 8.0 | 0.00 | 0.01 | 0.01 | 85 | 1024.5 |
| 20260830124305 | 60 | 144 | 2.0 | 3.0 | 0.00 | 0.01 | 0.01 | 85 | 1024.6 |
| 20260830123805 | 60 | 143 | 2.0 | 5.0 | 0.00 | 0.01 | 0.01 | 85 | 1024.5 |
| 20260830122805 | 60 | 171 | 2.0 | 6.0 | 0.00 | 0.01 | 0.01 | 84 | 1024.4 |
| 20260830122306 | 60 | 173 | 3.0 | 7.0 | 0.00 | 0.01 | 0.01 | 84 | 1024.5 |
| 20260830121806 | 60 | 171 | 2.0 | 7.0 | 0.00 | 0.01 | 0.01 | 84 | 1024.4 |
| 20260830120804 | 60 | 171 | 1.0 | 3.0 | 0.00 | 0.01 | 0.01 | 83 | 1024.4 |
| 20260830120305 | 60 | 171 | 3.0 | 5.0 | 0.00 | 0.01 | 0.01 | 83 | 1024.4 |
| 20260830115306 | 60 | 170 | 3.0 | 7.0 | 0.00 | 0.01 | 0.01 | 83 | 1024.3 |
| 20260830114305 | 61 | 154 | 3.0 | 8.0 | 0.00 | 0.01 | 0.01 | 82 | 1024.3 |
| 20260830113804 | 61 | 161 | 7.0 | 12.0 | 0.00 | 0.01 | 0.01 | 82 | 1024.4 |
| 20260830113304 | 61 | 171 | 7.0 | 10.0 | 0.00 | 0.01 | 0.01 | 81 | 1024.3 |
| 20260830112804 | 61 | 163 | 6.0 | 12.0 | 0.00 | 0.01 | 0.01 | 81 | 1024.4 |
| 20260830112306 | 61 | 148 | 6.0 | 12.0 | 0.00 | 0.01 | 0.01 | 81 | 1024.5 |
| 20260830111805 | 61 | 165 | 6.0 | 9.0 | 0.00 | 0.01 | 0.01 | 81 | 1024.4 |
| 20260830111305 | 61 | 150 | 3.0 | 7.0 | 0.00 | 0.01 | 0.01 | 81 | 1024.4 |
| 20260830110805 | 61 | 127 | 2.0 | 3.0 | 0.00 | 0.01 | 0.01 | 81 | 1024.3 |
| 20260830110304 | 61 | 126 | 3.0 | 6.0 | 0.00 | 0.01 | 0.01 | 81 | 1024.2 |
| 20260830105804 | 61 | 159 | 3.0 | 7.0 | 0.00 | 0.01 | 0.01 | 80 | 1024.2 |
| 20260830105306 | 61 | 157 | 4.0 | 8.0 | 0.00 | 0.01 | 0.01 | 80 | 1024.2 |
| 20260830104804 | 61 | 153 | 5.0 | 12.0 | 0.00 | 0.01 | 0.01 | 80 | 1024.1 |
| 20260830104305 | 61 | 154 | 8.0 | 12.0 | 0.00 | 0.01 | 0.01 | 80 | 1024.0 |
| 20260830103304 | 61 | 171 | 2.0 | 3.0 | 0.00 | 0.01 | 0.01 | 80 | 1023.8 |
| 20260830102806 | 61 | 171 | 3.0 | 7.0 | 0.00 | 0.01 | 0.01 | 80 | 1023.8 |
| 20260830102306 | 61 | 169 | 6.0 | 9.0 | 0.00 | 0.01 | 0.01 | 80 | 1023.9 |
| 20260830101806 | 61 | 165 | 7.0 | 10.0 | 0.00 | 0.01 | 0.01 | 80 | 1023.8 |
| 20260830101305 | 61 | 168 | 5.0 | 9.0 | 0.00 | 0.01 | 0.01 | 80 | 1023.8 |
| 20260830100304 | 61 | 172 | 4.0 | 9.0 | 0.00 | 0.01 | 0.01 | 79 | 1023.8 |
| 20260830095804 | 61 | 161 | 5.0 | 8.0 | 0.00 | 0.01 | 0.01 | 79 | 1023.8 |
| 20260830095306 | 62 | 149 | 3.0 | 5.0 | 0.00 | 0.01 | 0.01 | 79 | 1023.8 |
| 20260830094805 | 62 | 142 | 3.0 | 7.0 | 0.00 | 0.01 | 0.01 | 79 | 1023.9 |
| 20260830093804 | 62 | 144 | 3.0 | 10.0 | 0.00 | 0.01 | 0.01 | 79 | 1023.8 |
| 20260830093304 | 62 | 160 | 6.0 | 13.0 | 0.00 | 0.01 | 0.01 | 79 | 1023.7 |
| 20260830092804 | 62 | 158 | 5.0 | 10.0 | 0.00 | 0.01 | 0.01 | 79 | 1023.7 |
| 20260830092306 | 62 | 150 | 4.0 | 8.0 | 0.00 | 0.01 | 0.01 | 79 | 1023.6 |
| 20260830091805 | 62 | 152 | 3.0 | 9.0 | 0.00 | 0.01 | 0.01 | 78 | 1023.5 |
| 20260830091304 | 62 | 164 | 5.0 | 10.0 | 0.00 | 0.01 | 0.01 | 78 | 1023.4 |
| 20260830090304 | 63 | 155 | 4.0 | 8.0 | 0.00 | 0.01 | 0.01 | 78 | 1023.4 |
| 20260830085306 | 63 | 155 | 5.0 | 9.0 | 0.00 | 0.01 | 0.01 | 77 | 1023.4 |
| 20260830084805 | 63 | 159 | 5.0 | 8.0 | 0.00 | 0.01 | 0.01 | 77 | 1023.3 |
| 20260830083305 | 64 | 159 | 6.0 | 10.0 | 0.00 | 0.01 | 0.01 | 75 | 1023.2 |
| 20260830082804 | 64 | 146 | 4.0 | 10.0 | 0.00 | 0.01 | 0.01 | 74 | 1023.2 |
| 20260830082306 | 64 | 163 | 5.0 | 12.0 | 0.00 | 0.01 | 0.01 | 74 | 1023.2 |
| 20260830081805 | 65 | 155 | 3.0 | 12.0 | 0.00 | 0.01 | 0.01 | 73 | 1023.2 |
| 20260830080805 | 65 | 128 | 6.0 | 15.0 | 0.00 | 0.01 | 0.01 | 72 | 1023.0 |
| 20260830080306 | 66 | 132 | 7.0 | 13.0 | 0.00 | 0.01 | 0.01 | 71 | 1023.0 |
| 20260830075805 | 66 | 150 | 6.0 | 12.0 | 0.00 | 0.01 | 0.01 | 70 | 1023.0 |
| 20260830075306 | 67 | 156 | 8.0 | 12.0 | 0.00 | 0.01 | 0.01 | 69 | 1023.0 |
| 20260830074806 | 67 | 155 | 6.0 | 12.0 | 0.00 | 0.01 | 0.01 | 69 | 1023.0 |
| 20260830074304 | 67 | 147 | 4.0 | 10.0 | 0.00 | 0.01 | 0.01 | 69 | 1022.9 |
| 20260830073806 | 67 | 154 | 6.0 | 10.0 | 0.00 | 0.01 | 0.01 | 69 | 1022.8 |
| 20260830073304 | 68 | 150 | 7.0 | 12.0 | 0.00 | 0.01 | 0.01 | 69 | 1022.8 |
| 20260830072804 | 68 | 155 | 9.0 | 13.0 | 0.00 | 0.01 | 0.01 | 67 | 1022.7 |
| 20260830072306 | 68 | 137 | 7.0 | 12.0 | 0.00 | 0.01 | 0.01 | 67 | 1022.7 |
| 20260830071804 | 69 | 156 | 9.0 | 17.0 | 0.00 | 0.01 | 0.01 | 67 | 1022.6 |
| 20260830071304 | 69 | 133 | 8.0 | 20.0 | 0.00 | 0.01 | 0.01 | 67 | 1022.6 |
| 20260830070804 | 69 | 157 | 9.0 | 18.0 | 0.00 | 0.01 | 0.01 | 67 | 1022.4 |
| 20260830070304 | 69 | 154 | 8.0 | 17.0 | 0.00 | 0.01 | 0.01 | 67 | 1022.3 |
| 20260830065805 | 68 | 129 | 8.0 | 14.0 | 0.00 | 0.01 | 0.01 | 67 | 1022.3 |
| 20260830065306 | 68 | 150 | 9.0 | 15.0 | 0.00 | 0.01 | 0.01 | 67 | 1022.2 |
| 20260830064804 | 68 | 116 | 9.0 | 15.0 | 0.00 | 0.01 | 0.01 | 67 | 1022.2 |
| 20260830064304 | 69 | 149 | 13.0 | 18.0 | 0.00 | 0.01 | 0.01 | 66 | 1022.3 |
| 20260830063804 | 69 | 134 | 12.0 | 18.0 | 0.00 | 0.01 | 0.01 | 67 | 1022.2 |
| 20260830063305 | 68 | 169 | 10.0 | 16.0 | 0.00 | 0.01 | 0.01 | 68 | 1022.2 |
| 20260830062804 | 68 | 134 | 10.0 | 18.0 | 0.00 | 0.01 | 0.01 | 67 | 1022.1 |
| 20260830062306 | 68 | 117 | 9.0 | 20.0 | 0.00 | 0.01 | 0.01 | 67 | 1022.1 |
| 20260830061804 | 68 | 118 | 9.0 | 13.0 | 0.00 | 0.01 | 0.01 | 66 | 1022.0 |
| 20260830061305 | 69 | 136 | 10.0 | 15.0 | 0.00 | 0.01 | 0.01 | 64 | 1022.0 |
| 20260830060804 | 69 | 148 | 7.0 | 16.0 | 0.00 | 0.01 | 0.01 | 65 | 1021.9 |
| 20260830055306 | 69 | 116 | 7.0 | 20.0 | 0.00 | 0.01 | 0.01 | 67 | 1021.9 |
| 20260830054805 | 69 | 141 | 9.0 | 14.0 | 0.01 | 0.01 | 0.01 | 67 | 1021.8 |
| 20260830054304 | 69 | 121 | 8.0 | 17.0 | 0.01 | 0.01 | 0.01 | 68 | 1021.9 |
| 20260830053804 | 69 | 128 | 8.0 | 12.0 | 0.01 | 0.01 | 0.01 | 68 | 1021.9 |
| 20260830053304 | 69 | 111 | 5.0 | 10.0 | 0.01 | 0.01 | 0.01 | 69 | 1021.8 |
| 20260830052306 | 68 | 116 | 9.0 | 16.0 | 0.01 | 0.01 | 0.01 | 69 | 1021.8 |
| 20260830051805 | 68 | 104 | 7.0 | 17.0 | 0.01 | 0.01 | 0.01 | 69 | 1021.9 |
| 20260830051305 | 68 | 121 | 6.0 | 15.0 | 0.01 | 0.01 | 0.01 | 70 | 1021.8 |
| 20260830050805 | 68 | 127 | 9.0 | 15.0 | 0.01 | 0.01 | 0.01 | 70 | 1021.9 |
| 20260830050305 | 68 | 136 | 5.0 | 14.0 | 0.01 | 0.01 | 0.01 | 69 | 1021.9 |
| 20260830045804 | 69 | 132 | 9.0 | 16.0 | 0.01 | 0.01 | 0.01 | 69 | 1021.9 |
| 20260830045306 | 69 | 140 | 11.0 | 20.0 | 0.01 | 0.01 | 0.01 | 69 | 1022.0 |
| 20260830044804 | 70 | 158 | 9.0 | 18.0 | 0.00 | 0.00 | 0.00 | 69 | 1021.9 |
| 20260830044304 | 70 | 119 | 10.0 | 16.0 | 0.00 | 0.00 | 0.00 | 68 | 1022.0 |
| 20260830043805 | 70 | 127 | 10.0 | 18.0 | 0.00 | 0.00 | 0.00 | 68 | 1022.0 |
| 20260830043305 | 70 | 147 | 9.0 | 17.0 | 0.00 | 0.00 | 0.00 | 67 | 1022.0 |
| 20260830042306 | 70 | 119 | 7.0 | 13.0 | 0.00 | 0.00 | 0.00 | 68 | 1021.9 |
| 20260830041805 | 70 | 118 | 8.0 | 17.0 | 0.00 | 0.00 | 0.00 | 67 | 1022.0 |
| 20260830040805 | 70 | 123 | 7.0 | 12.0 | 0.00 | 0.00 | 0.00 | 68 | 1022.2 |
| 20260830040305 | 70 | 119 | 10.0 | 17.0 | 0.00 | 0.00 | 0.00 | 67 | 1022.2 |
| 20260830035805 | 70 | 150 | 6.0 | 12.0 | 0.00 | 0.00 | 0.00 | 68 | 1022.2 |
| 20260830035306 | 71 | 103 | 10.0 | 15.0 | 0.00 | 0.00 | 0.00 | 68 | 1022.1 |
| 20260830034804 | 71 | 98 | 9.0 | 15.0 | 0.00 | 0.00 | 0.00 | 67 | 1022.1 |
| 20260830034304 | 71 | 86 | 8.0 | 12.0 | 0.00 | 0.00 | 0.00 | 67 | 1022.1 |
| 20260830033804 | 71 | 115 | 12.0 | 17.0 | 0.00 | 0.00 | 0.00 | 67 | 1022.2 |
| 20260830033304 | 71 | 117 | 7.0 | 16.0 | 0.00 | 0.00 | 0.00 | 69 | 1022.2 |
| 20260830032804 | 70 | 111 | 7.0 | 15.0 | 0.00 | 0.00 | 0.00 | 69 | 1022.3 |
| 20260830032306 | 70 | 138 | 7.0 | 18.0 | 0.00 | 0.00 | 0.00 | 70 | 1022.4 |
| 20260830031805 | 70 | 129 | 6.0 | 12.0 | 0.00 | 0.00 | 0.00 | 72 | 1022.3 |
| 20260830031305 | 70 | 106 | 10.0 | 15.0 | 0.00 | 0.00 | 0.00 | 71 | 1022.4 |
| 20260830030304 | 69 | 100 | 9.0 | 12.0 | 0.00 | 0.00 | 0.00 | 74 | 1022.4 |
| 20260830025804 | 68 | 73 | 7.0 | 20.0 | 0.00 | 0.00 | 0.00 | 75 | 1022.5 |